Time;durP1;ratioP1;P1;durP2;ratioP2;P2;SDS_P1;SDS_P2;PMS_P1;PMS_P2;Temp;Humidity;BMP_temperature;BMP_pressure;BME280_temperature;BME280_humidity;BME280_pressure;Samples;Min_cycle;Max_cycle;Signal;HPM_P1;HPM_P2
2024/03/29 01:43:24;;;;;;;1.53;0.90;;;10.80;98.90;;;;;;4991426;28;20438;-46
2024/03/29 01:45:55;;;;;;;1.53;0.83;;;10.80;98.90;;;;;;4997378;28;20465;-46
2024/03/29 01:48:23;;;;;;;1.67;1.20;;;10.80;99.00;;;;;;5002591;28;20564;-46
2024/03/29 01:50:52;;;;;;;3.10;1.27;;;10.80;98.90;;;;;;5005544;28;20530;-46
2024/03/29 01:53:21;;;;;;;2.13;1.23;;;10.80;98.60;;;;;;4997449;28;20449;-45
2024/03/29 01:55:48;;;;;;;1.60;1.10;;;10.80;98.30;;;;;;4998910;28;20960;-46
2024/03/29 01:58:18;;;;;;;2.10;1.27;;;10.80;98.60;;;;;;5007254;28;20441;-46
2024/03/29 02:00:53;;;;;;;1.67;1.03;;;10.80;98.60;;;;;;5005969;28;20439;-46
2024/03/29 02:03:21;;;;;;;1.20;0.90;;;10.80;98.60;;;;;;5003112;28;20427;-46
2024/03/29 02:05:48;;;;;;;1.50;1.40;;;10.80;98.60;;;;;;4998115;28;20476;-46
2024/03/29 02:08:16;;;;;;;2.10;1.67;;;10.80;97.80;;;;;;5000060;28;20950;-46
2024/03/29 02:10:44;;;;;;;1.70;1.30;;;10.80;98.10;;;;;;4997704;28;20488;-46
2024/03/29 02:13:11;;;;;;;1.73;1.03;;;10.80;98.20;;;;;;5000083;28;20817;-45
2024/03/29 02:15:40;;;;;;;2.60;1.40;;;10.80;98.00;;;;;;4997323;28;21002;-46
2024/03/29 02:18:07;;;;;;;1.70;1.17;;;10.80;98.40;;;;;;5009948;28;20456;-46
2024/03/29 02:20:36;;;;;;;1.30;1.00;;;10.80;98.60;;;;;;5007494;28;20444;-46
2024/03/29 02:23:08;;;;;;;1.33;0.80;;;10.80;98.60;;;;;;5005886;28;20941;-46
2024/03/29 02:25:37;;;;;;;2.17;1.00;;;10.80;98.60;;;;;;5002439;28;20487;-46
2024/03/29 02:28:05;;;;;;;2.80;1.37;;;10.80;98.30;;;;;;4995288;28;21091;-46
2024/03/29 02:30:33;;;;;;;1.63;1.10;;;10.80;98.60;;;;;;4995033;28;20485;-46
2024/03/29 02:33:00;;;;;;;3.10;1.07;;;10.80;98.60;;;;;;4985106;28;20800;-46
2024/03/29 02:35:28;;;;;;;1.53;0.90;;;10.80;98.50;;;;;;4997465;28;20839;-47
2024/03/29 02:37:55;;;;;;;1.83;0.90;;;10.80;98.30;;;;;;5008852;28;20439;-46
2024/03/29 02:40:22;;;;;;;2.33;1.00;;;10.80;98.50;;;;;;4996423;28;20558;-46
2024/03/29 02:42:51;;;;;;;1.30;0.73;;;10.80;98.60;;;;;;5003086;28;20487;-46
2024/03/29 02:45:18;;;;;;;2.33;0.80;;;10.80;98.60;;;;;;5001211;28;20437;-46
2024/03/29 02:47:45;;;;;;;2.00;1.00;;;10.80;98.60;;;;;;5007047;28;20557;-46
2024/03/29 02:50:16;;;;;;;1.93;1.23;;;10.80;98.60;;;;;;5007954;28;20887;-46
2024/03/29 02:52:43;;;;;;;1.17;0.80;;;10.80;98.60;;;;;;5000860;28;21038;-46
2024/03/29 02:55:10;;;;;;;2.13;1.10;;;10.80;98.60;;;;;;5005365;28;20447;-46
2024/03/29 02:57:37;;;;;;;1.23;0.70;;;10.80;98.30;;;;;;5008511;28;20484;-46
2024/03/29 03:00:06;;;;;;;1.13;0.80;;;10.80;98.60;;;;;;5002425;28;20510;-46
2024/03/29 03:02:33;;;;;;;1.23;0.70;;;10.80;98.60;;;;;;5000136;28;20868;-46
2024/03/29 03:05:00;;;;;;;1.50;0.83;;;10.80;98.60;;;;;;5003265;28;20539;-46
2024/03/29 03:12:56;;;;;;;1.10;0.80;;;10.80;98.80;;;;;;5009101;28;20550;-46
2024/03/29 03:15:25;;;;;;;1.73;0.80;;;10.80;98.60;;;;;;5005433;28;20445;-46
2024/03/29 03:17:51;;;;;;;1.90;0.90;;;10.80;98.60;;;;;;5012909;28;20545;-46
2024/03/29 03:20:19;;;;;;;1.60;0.87;;;10.80;98.60;;;;;;5001716;28;20547;-46
2024/03/29 03:22:45;;;;;;;1.10;0.60;;;10.80;98.90;;;;;;4998165;28;20483;-46
2024/03/29 03:25:12;;;;;;;1.50;0.93;;;10.80;98.90;;;;;;5006004;28;20438;-46
2024/03/29 03:27:38;;;;;;;1.20;0.80;;;10.80;98.90;;;;;;4997070;28;20518;-46
2024/03/29 03:30:07;;;;;;;2.63;1.10;;;10.80;98.90;;;;;;5003656;28;20445;-46
2024/03/29 03:32:34;;;;;;;1.17;0.87;;;10.80;99.10;;;;;;5006825;28;20497;-46
2024/03/29 03:35:02;;;;;;;1.70;1.10;;;10.80;99.20;;;;;;5002834;28;20950;-46
2024/03/29 03:37:28;;;;;;;1.67;1.00;;;10.80;99.20;;;;;;5004165;28;20486;-46
2024/03/29 03:39:55;;;;;;;1.57;0.77;;;10.80;99.20;;;;;;5003407;28;20457;-46
2024/03/29 03:42:21;;;;;;;3.10;1.03;;;10.80;99.20;;;;;;5004535;28;20722;-46
2024/03/29 03:44:48;;;;;;;1.40;1.00;;;10.80;99.40;;;;;;5004288;28;20439;-46
2024/03/29 03:47:14;;;;;;;1.83;1.17;;;10.80;99.40;;;;;;5004298;28;20821;-46
2024/03/29 03:49:43;;;;;;;1.40;1.10;;;10.80;99.20;;;;;;4997573;28;20495;-46
2024/03/29 03:52:09;;;;;;;1.80;1.03;;;10.80;99.30;;;;;;4994290;28;20451;-46
2024/03/29 03:54:37;;;;;;;1.93;0.87;;;10.80;99.40;;;;;;4997399;28;20431;-46
2024/03/29 03:57:04;;;;;;;4.50;1.00;;;10.80;99.10;;;;;;5002900;28;20436;-46
2024/03/29 03:59:31;;;;;;;2.17;0.93;;;10.80;98.90;;;;;;5002438;28;20493;-46
2024/03/29 04:01:57;;;;;;;2.77;0.80;;;10.70;98.80;;;;;;4999312;28;20809;-47
2024/03/29 04:04:24;;;;;;;1.67;0.87;;;10.70;98.70;;;;;;5002704;28;20435;-45
2024/03/29 04:06:51;;;;;;;1.70;1.27;;;10.70;98.90;;;;;;5004713;28;21099;-46
2024/03/29 04:09:19;;;;;;;1.87;0.97;;;10.70;98.90;;;;;;4994351;28;20505;-47
2024/03/29 04:11:45;;;;;;;1.80;1.27;;;10.70;98.90;;;;;;4992068;28;20579;-47
2024/03/29 04:14:12;;;;;;;1.60;1.00;;;10.70;98.70;;;;;;4998383;28;20968;-46
2024/03/29 04:16:38;;;;;;;1.67;1.00;;;10.70;98.70;;;;;;5003983;28;20471;-46
2024/03/29 04:19:05;;;;;;;3.33;1.23;;;10.70;98.70;;;;;;4994913;28;21020;-47
2024/03/29 04:21:31;;;;;;;1.90;0.87;;;10.70;99.20;;;;;;5001532;28;20475;-47
2024/03/29 04:24:00;;;;;;;1.90;0.73;;;10.70;99.10;;;;;;4997660;28;20445;-47
2024/03/29 04:26:26;;;;;;;1.40;0.93;;;10.70;99.30;;;;;;5003352;28;20840;-47
2024/03/29 04:28:53;;;;;;;1.37;0.97;;;10.70;99.40;;;;;;5002169;28;20469;-46
2024/03/29 04:31:19;;;;;;;3.03;1.10;;;10.70;99.40;;;;;;4992015;28;20530;-47
2024/03/29 04:33:46;;;;;;;1.40;0.87;;;10.70;99.10;;;;;;5001113;28;20462;-47
2024/03/29 04:36:13;;;;;;;1.40;0.83;;;10.70;99.30;;;;;;5007856;28;20521;-46
2024/03/29 04:38:40;;;;;;;1.77;0.83;;;10.70;99.40;;;;;;4992760;28;20502;-47
2024/03/29 04:41:09;;;;;;;1.93;1.07;;;10.70;99.40;;;;;;4991866;28;20526;-46
2024/03/29 04:43:36;;;;;;;1.83;0.87;;;10.70;99.10;;;;;;4991647;28;20949;-47
2024/03/29 04:46:05;;;;;;;2.67;1.17;;;10.70;99.10;;;;;;5008154;28;20451;-46
2024/03/29 04:48:32;;;;;;;1.50;0.87;;;10.70;98.90;;;;;;5004004;28;20441;-46
2024/03/29 04:50:59;;;;;;;1.27;0.90;;;10.70;99.30;;;;;;4997018;28;20546;-47
2024/03/29 04:53:26;;;;;;;1.97;1.37;;;10.70;99.10;;;;;;5003718;28;20530;-46
2024/03/29 04:55:57;;;;;;;1.80;0.90;;;10.70;99.10;;;;;;5008051;28;21109;-47
2024/03/29 04:58:26;;;;;;;1.80;0.83;;;10.70;99.20;;;;;;5002457;28;20493;-46
2024/03/29 05:00:54;;;;;;;1.73;1.00;;;10.70;99.20;;;;;;5011006;28;20473;-47
2024/03/29 05:03:22;;;;;;;2.13;0.90;;;10.70;99.30;;;;;;4998924;28;20535;-46
2024/03/29 05:05:50;;;;;;;1.70;1.00;;;10.70;99.30;;;;;;4999729;28;20430;-47
2024/03/29 05:08:19;;;;;;;1.60;0.73;;;10.60;99.20;;;;;;4987956;28;20459;-47
2024/03/29 05:10:46;;;;;;;2.63;0.93;;;10.60;99.40;;;;;;5004739;28;20512;-46
2024/03/29 05:13:14;;;;;;;3.00;1.00;;;10.60;99.40;;;;;;4997869;28;20524;-46
2024/03/29 05:15:43;;;;;;;1.80;0.90;;;10.60;99.30;;;;;;4998814;28;20520;-46
2024/03/29 05:18:10;;;;;;;3.60;1.70;;;10.60;99.50;;;;;;4991393;28;20451;-47
2024/03/29 05:20:39;;;;;;;1.50;0.80;;;10.60;99.20;;;;;;5002537;28;20524;-46
2024/03/29 05:23:07;;;;;;;2.50;0.97;;;10.60;99.40;;;;;;5002948;28;20520;-46
2024/03/29 05:25:34;;;;;;;1.20;0.60;;;10.60;99.50;;;;;;5003364;28;20459;-47
2024/03/29 05:28:03;;;;;;;1.33;0.90;;;10.60;99.40;;;;;;4999605;28;20840;-45
2024/03/29 05:30:30;;;;;;;1.73;1.03;;;10.60;99.40;;;;;;4996245;28;20450;-46
2024/03/29 05:32:59;;;;;;;1.40;0.80;;;10.60;99.50;;;;;;4994245;28;20874;-47
2024/03/29 05:35:26;;;;;;;1.30;0.70;;;10.60;99.60;;;;;;4996135;28;20809;-47
2024/03/29 05:37:54;;;;;;;3.20;1.20;;;10.60;99.70;;;;;;5003475;28;20430;-47
2024/03/29 05:40:25;;;;;;;2.10;0.93;;;10.60;99.70;;;;;;4982415;28;20465;-47
2024/03/29 05:42:52;;;;;;;1.70;1.00;;;10.60;99.70;;;;;;4998309;28;20448;-47
2024/03/29 05:45:27;;;;;;;2.07;0.87;;;10.60;99.70;;;;;;5007649;28;20452;-47
2024/03/29 05:47:59;;;;;;;1.40;0.80;;;10.60;99.80;;;;;;4998198;28;20495;-47
2024/03/29 05:50:27;;;;;;;1.60;0.90;;;10.60;99.70;;;;;;4995084;28;20474;-46
2024/03/29 05:52:54;;;;;;;1.47;1.00;;;10.60;99.90;;;;;;5002764;28;20524;-47
2024/03/29 05:55:21;;;;;;;1.50;1.07;;;10.60;99.90;;;;;;4998674;28;20819;-46
2024/03/29 05:57:48;;;;;;;1.30;0.80;;;10.60;99.90;;;;;;5001555;28;20423;-46
2024/03/29 06:00:16;;;;;;;1.90;1.30;;;10.60;99.90;;;;;;5001846;28;20491;-46
2024/03/29 06:02:45;;;;;;;1.87;0.73;;;10.60;99.90;;;;;;4991941;28;20467;-46
2024/03/29 06:05:14;;;;;;;1.37;1.00;;;10.60;99.90;;;;;;5010470;28;20439;-46
2024/03/29 06:07:41;;;;;;;2.40;2.13;;;10.60;99.90;;;;;;4999529;28;20488;-46
2024/03/29 06:10:10;;;;;;;1.50;0.73;;;10.60;99.90;;;;;;4998297;28;20476;-46
2024/03/29 06:12:38;;;;;;;1.83;1.00;;;10.60;99.90;;;;;;4992558;28;20459;-46
2024/03/29 06:17:51;;;;;;;1.90;0.77;;;10.60;99.90;;;;;;4995524;28;20451;-46
2024/03/29 06:20:19;;;;;;;1.60;0.70;;;10.60;99.90;;;;;;4999001;28;20486;-46
2024/03/29 06:22:47;;;;;;;1.70;0.80;;;10.60;99.90;;;;;;5001841;28;20428;-46
2024/03/29 06:25:15;;;;;;;1.10;0.67;;;10.60;99.90;;;;;;5004644;28;20553;-46
2024/03/29 06:27:47;;;;;;;1.57;0.90;;;10.60;99.90;;;;;;5001872;28;20555;-46
2024/03/29 06:30:16;;;;;;;1.30;0.70;;;10.60;99.90;;;;;;5004205;28;20446;-47
2024/03/29 06:32:44;;;;;;;1.37;0.73;;;10.60;99.90;;;;;;4998575;28;20522;-47
2024/03/29 06:35:12;;;;;;;1.30;0.80;;;10.60;99.90;;;;;;4991028;28;20453;-46
2024/03/29 06:37:41;;;;;;;1.30;0.87;;;10.60;99.90;;;;;;4989895;28;20976;-46
2024/03/29 06:40:10;;;;;;;1.33;0.83;;;10.60;99.90;;;;;;4989241;28;20463;-46
2024/03/29 06:42:37;;;;;;;1.67;0.70;;;10.60;99.90;;;;;;4998287;28;20533;-46
2024/03/29 06:45:05;;;;;;;1.53;0.73;;;10.60;99.90;;;;;;4992429;28;20446;-46
2024/03/29 06:47:32;;;;;;;1.43;0.90;;;10.60;99.90;;;;;;4989750;28;20510;-46
2024/03/29 06:50:00;;;;;;;1.40;0.80;;;10.60;99.90;;;;;;4994224;28;20465;-47
2024/03/29 06:52:27;;;;;;;2.17;1.07;;;10.60;99.90;;;;;;4995774;28;20519;-46
2024/03/29 06:54:55;;;;;;;1.30;0.93;;;10.60;99.90;;;;;;5001252;28;20446;-46
2024/03/29 06:57:25;;;;;;;1.93;1.10;;;10.60;99.90;;;;;;4996965;28;20481;-46
2024/03/29 06:59:52;;;;;;;2.20;0.90;;;10.60;99.90;;;;;;4991810;28;20900;-46
2024/03/29 07:02:19;;;;;;;1.10;0.60;;;10.60;99.90;;;;;;4998212;28;20463;-46
2024/03/29 07:04:46;;;;;;;1.50;0.70;;;10.60;99.90;;;;;;4990084;28;20520;-45
2024/03/29 07:07:13;;;;;;;1.20;0.87;;;10.50;99.90;;;;;;4989814;28;20465;-46
2024/03/29 07:09:40;;;;;;;1.60;0.80;;;10.60;99.90;;;;;;4995837;28;20448;-46
2024/03/29 07:12:09;;;;;;;1.83;0.80;;;10.60;99.90;;;;;;4999067;28;20449;-46
2024/03/29 07:14:39;;;;;;;1.47;0.83;;;10.60;99.90;;;;;;4984461;28;20430;-46
2024/03/29 07:17:06;;;;;;;1.43;0.83;;;10.60;99.90;;;;;;4990045;28;20436;-46
2024/03/29 07:19:33;;;;;;;2.60;0.80;;;10.60;99.90;;;;;;4988819;28;20548;-47
2024/03/29 07:22:01;;;;;;;1.53;0.60;;;10.60;99.90;;;;;;4997251;28;20834;-47
2024/03/29 07:24:28;;;;;;;1.10;0.60;;;10.60;99.90;;;;;;4990386;28;20438;-46
2024/03/29 07:26:55;;;;;;;1.50;0.93;;;10.60;99.90;;;;;;4997445;28;20452;-46
2024/03/29 07:29:24;;;;;;;1.53;0.80;;;10.60;99.90;;;;;;4995577;28;20480;-46
2024/03/29 07:31:50;;;;;;;1.10;0.63;;;10.60;99.90;;;;;;4997541;28;20766;-47
2024/03/29 07:34:17;;;;;;;1.10;0.50;;;10.50;99.90;;;;;;4997192;28;20543;-47
2024/03/29 07:36:44;;;;;;;1.50;0.80;;;10.60;99.90;;;;;;4990909;28;20472;-47
2024/03/29 07:39:11;;;;;;;2.57;0.87;;;10.60;99.90;;;;;;4989713;28;20460;-47
2024/03/29 07:41:38;;;;;;;3.67;0.80;;;10.60;99.90;;;;;;4989142;28;20471;-47
2024/03/29 07:44:08;;;;;;;1.80;0.67;;;10.60;99.90;;;;;;4995183;28;20463;-46
2024/03/29 07:46:37;;;;;;;1.33;0.87;;;10.60;99.90;;;;;;4999823;28;20536;-46
2024/03/29 07:49:05;;;;;;;1.27;0.60;;;10.60;99.90;;;;;;4992734;28;20999;-46
2024/03/29 07:51:32;;;;;;;1.53;0.70;;;10.60;99.90;;;;;;4994125;28;20487;-46
2024/03/29 07:54:00;;;;;;;1.70;0.70;;;10.60;99.90;;;;;;5004158;28;20715;-47
2024/03/29 07:56:27;;;;;;;1.23;0.80;;;10.60;99.90;;;;;;4998250;28;20440;-46
2024/03/29 07:58:54;;;;;;;1.50;0.70;;;10.60;99.90;;;;;;4995512;28;20465;-47
2024/03/29 08:01:22;;;;;;;1.57;0.97;;;10.60;99.90;;;;;;4994801;28;20425;-46
2024/03/29 08:03:54;;;;;;;1.87;0.90;;;10.60;99.90;;;;;;5007834;28;20482;-47
2024/03/29 08:06:23;;;;;;;2.07;0.83;;;10.60;99.90;;;;;;5002239;28;20469;-47
2024/03/29 08:08:50;;;;;;;1.43;0.70;;;10.60;99.90;;;;;;5002267;28;20509;-46
2024/03/29 08:11:17;;;;;;;1.13;0.70;;;10.60;99.90;;;;;;5001589;28;20462;-46
2024/03/29 08:13:44;;;;;;;1.40;0.80;;;10.60;99.90;;;;;;4994499;28;20583;-46
2024/03/29 08:16:12;;;;;;;1.50;0.80;;;10.60;99.90;;;;;;5002370;28;21063;-46
2024/03/29 08:18:39;;;;;;;1.30;0.70;;;10.60;99.90;;;;;;4992094;28;20566;-46
2024/03/29 08:21:11;;;;;;;1.30;0.63;;;10.60;99.90;;;;;;4992194;28;20435;-46
2024/03/29 08:23:40;;;;;;;1.53;0.60;;;10.60;99.90;;;;;;4997709;28;20527;-46
2024/03/29 08:26:07;;;;;;;1.60;0.97;;;10.60;99.90;;;;;;5012188;28;20445;-46
2024/03/29 08:28:37;;;;;;;1.50;0.80;;;10.60;99.90;;;;;;5002778;28;20450;-46
2024/03/29 08:31:06;;;;;;;1.70;0.67;;;10.60;99.90;;;;;;5000222;28;20478;-47
2024/03/29 08:33:34;;;;;;;1.07;0.50;;;10.70;99.90;;;;;;4977879;28;20501;-46
2024/03/29 08:36:01;;;;;;;1.30;0.80;;;10.70;99.90;;;;;;4992626;28;20473;-47
2024/03/29 08:38:29;;;;;;;1.60;0.80;;;10.70;99.90;;;;;;4992298;28;20448;-46
2024/03/29 08:40:57;;;;;;;1.87;0.90;;;10.70;99.90;;;;;;4991827;28;20557;-46
2024/03/29 08:43:28;;;;;;;1.80;0.90;;;10.70;99.90;;;;;;4977660;28;20465;-46
2024/03/29 08:45:55;;;;;;;1.60;0.63;;;10.70;99.90;;;;;;5002256;28;20525;-46
2024/03/29 08:48:23;;;;;;;1.00;0.50;;;10.70;99.90;;;;;;4999154;28;20499;-47
2024/03/29 08:50:51;;;;;;;1.30;0.60;;;10.60;99.90;;;;;;5004552;28;20964;-47
2024/03/29 08:53:18;;;;;;;3.13;0.60;;;10.60;99.90;;;;;;4993944;28;20505;-46
2024/03/29 08:55:49;;;;;;;1.73;0.60;;;10.60;99.90;;;;;;5003663;28;20446;-48
2024/03/29 08:58:18;;;;;;;1.23;0.77;;;10.60;99.90;;;;;;4993207;28;20815;-47
2024/03/29 09:00:55;;;;;;;1.57;1.03;;;10.70;99.90;;;;;;4982214;28;20732;-48
2024/03/29 09:03:22;;;;;;;2.03;0.70;;;10.60;99.90;;;;;;4999888;28;20464;-46
2024/03/29 09:05:50;;;;;;;1.67;0.73;;;10.70;99.90;;;;;;4991834;28;20441;-47
2024/03/29 09:08:20;;;;;;;1.50;0.70;;;10.70;99.90;;;;;;4993645;28;21040;-46
2024/03/29 09:10:49;;;;;;;1.73;1.10;;;10.70;99.90;;;;;;4999638;28;20525;-46
2024/03/29 09:13:17;;;;;;;1.23;0.60;;;10.70;99.90;;;;;;5000478;28;20438;-46
2024/03/29 09:15:44;;;;;;;1.43;0.70;;;10.70;99.90;;;;;;4991750;28;20862;-47
2024/03/29 09:18:22;;;;;;;1.10;0.60;;;10.70;99.90;;;;;;4997708;28;20584;-48
2024/03/29 09:20:57;;;;;;;1.37;0.80;;;10.70;99.90;;;;;;5005912;28;20481;-46
2024/03/29 09:23:25;;;;;;;1.87;1.17;;;10.70;99.90;;;;;;5002188;28;20794;-47
2024/03/29 09:25:53;;;;;;;1.27;0.70;;;10.70;99.90;;;;;;4998676;28;20436;-47
2024/03/29 09:28:21;;;;;;;1.27;0.63;;;10.70;99.90;;;;;;4989288;28;21069;-47
2024/03/29 09:30:49;;;;;;;1.20;0.50;;;10.70;99.90;;;;;;5002658;28;20485;-47
2024/03/29 09:33:16;;;;;;;1.80;0.67;;;10.70;99.90;;;;;;4997077;28;20433;-47
2024/03/29 09:35:43;;;;;;;1.30;0.60;;;10.70;99.90;;;;;;4998412;28;20471;-49
2024/03/29 09:38:10;;;;;;;1.00;0.50;;;10.70;99.90;;;;;;4996896;28;20442;-47
2024/03/29 09:40:38;;;;;;;1.40;0.70;;;10.70;99.90;;;;;;5001305;28;20882;-48
2024/03/29 09:43:09;;;;;;;1.40;0.77;;;10.80;99.90;;;;;;4999625;28;20479;-49
2024/03/29 09:45:37;;;;;;;1.10;0.60;;;10.80;99.90;;;;;;5001238;28;20433;-47
2024/03/29 09:48:09;;;;;;;1.37;0.70;;;10.80;99.90;;;;;;4995983;28;20554;-48
2024/03/29 09:50:37;;;;;;;1.90;0.80;;;10.80;99.90;;;;;;4993738;28;20536;-47
2024/03/29 09:53:07;;;;;;;1.97;0.93;;;10.80;99.90;;;;;;4993569;28;20530;-47
2024/03/29 09:55:36;;;;;;;1.30;0.60;;;10.80;99.90;;;;;;4994984;28;20431;-47
2024/03/29 09:58:04;;;;;;;1.70;0.90;;;10.70;99.90;;;;;;4993009;28;20440;-47
2024/03/29 10:00:32;;;;;;;1.87;0.70;;;10.80;99.90;;;;;;5024356;28;20908;-46
2024/03/29 10:03:00;;;;;;;1.20;0.67;;;10.80;99.90;;;;;;5001669;28;20437;-48
2024/03/29 10:05:29;;;;;;;2.33;0.70;;;10.80;99.90;;;;;;4996653;28;20470;-48
2024/03/29 10:07:57;;;;;;;2.10;0.70;;;10.80;99.90;;;;;;4993775;28;20530;-47
2024/03/29 10:10:24;;;;;;;1.47;0.80;;;10.80;99.90;;;;;;4998019;28;20482;-47
2024/03/29 10:12:51;;;;;;;1.73;0.70;;;10.80;99.90;;;;;;4991036;28;20786;-46
2024/03/29 10:15:21;;;;;;;1.77;0.80;;;10.80;99.90;;;;;;4999699;28;20483;-46
2024/03/29 10:17:49;;;;;;;1.30;0.60;;;10.80;99.90;;;;;;5005280;28;20519;-46
2024/03/29 10:20:22;;;;;;;1.23;0.70;;;10.80;99.90;;;;;;4994353;28;20477;-47
2024/03/29 10:22:49;;;;;;;1.00;0.50;;;10.80;99.90;;;;;;5004800;28;20447;-47
2024/03/29 10:25:17;;;;;;;1.50;0.70;;;10.80;99.90;;;;;;5000972;28;20431;-46
2024/03/29 10:27:45;;;;;;;2.23;0.80;;;10.80;99.90;;;;;;4994925;28;20536;-46
2024/03/29 10:30:17;;;;;;;1.60;0.90;;;10.80;99.90;;;;;;4996123;28;21011;-46
2024/03/29 10:32:44;;;;;;;0.97;0.40;;;10.80;99.90;;;;;;4995426;28;20456;-47
2024/03/29 10:35:13;;;;;;;1.30;0.80;;;10.80;99.90;;;;;;4998642;28;20442;-46
2024/03/29 10:37:44;;;;;;;1.50;0.70;;;10.80;99.90;;;;;;4997242;28;21109;-47
2024/03/29 10:40:15;;;;;;;1.30;0.80;;;10.80;99.90;;;;;;4998014;28;20447;-47
2024/03/29 10:42:42;;;;;;;1.30;0.70;;;10.80;99.90;;;;;;4995543;28;20459;-47
2024/03/29 10:45:10;;;;;;;1.30;0.60;;;10.80;99.90;;;;;;4991855;28;20439;-46
2024/03/29 10:47:37;;;;;;;1.43;0.60;;;10.80;99.90;;;;;;4991775;28;20562;-46
2024/03/29 10:50:06;;;;;;;1.60;0.93;;;10.80;99.90;;;;;;4989668;28;20495;-46
2024/03/29 10:52:35;;;;;;;2.33;0.87;;;10.80;99.90;;;;;;5013058;28;20456;-47
2024/03/29 10:55:02;;;;;;;1.60;0.70;;;10.80;99.90;;;;;;4973433;28;20786;-46
2024/03/29 10:57:32;;;;;;;2.73;0.73;;;10.80;99.90;;;;;;4989765;28;20461;-47
2024/03/29 11:00:05;;;;;;;1.43;0.50;;;10.80;99.90;;;;;;4978512;28;20532;-46
2024/03/29 11:02:43;;;;;;;1.40;0.80;;;10.80;99.90;;;;;;4989709;28;20429;-46
2024/03/29 11:05:13;;;;;;;1.40;0.80;;;10.80;99.90;;;;;;4997706;28;20440;-46
2024/03/29 11:07:43;;;;;;;1.23;0.53;;;10.80;99.90;;;;;;4993147;28;20436;-47
2024/03/29 11:10:16;;;;;;;1.40;0.73;;;10.80;99.90;;;;;;4997373;28;20474;-46
2024/03/29 11:12:52;;;;;;;1.10;0.60;;;10.80;99.90;;;;;;4986913;28;20447;-47
2024/03/29 11:15:28;;;;;;;1.40;0.50;;;10.80;99.90;;;;;;4993395;28;20472;-46
2024/03/29 11:17:57;;;;;;;2.30;0.60;;;10.80;99.90;;;;;;4997445;28;20479;-47
2024/03/29 11:20:34;;;;;;;1.67;0.60;;;10.80;99.90;;;;;;4994978;28;20452;-48
2024/03/29 11:23:10;;;;;;;1.47;0.50;;;10.80;99.90;;;;;;4985940;28;20431;-47
2024/03/29 11:25:41;;;;;;;1.50;0.60;;;10.90;99.90;;;;;;5009638;28;20540;-48
2024/03/29 11:28:09;;;;;;;0.90;0.40;;;10.90;99.90;;;;;;4998826;28;20573;-46
2024/03/29 11:30:44;;;;;;;1.23;0.53;;;10.90;99.90;;;;;;4998497;28;20466;-47
2024/03/29 11:33:31;;;;;;;1.17;0.53;;;10.90;99.90;;;;;;4996688;28;20429;-48
2024/03/29 11:35:59;;;;;;;1.13;0.43;;;10.90;99.90;;;;;;4995890;28;20918;-46
2024/03/29 11:38:36;;;;;;;1.10;0.40;;;10.90;99.90;;;;;;5010606;28;20494;-47
2024/03/29 11:41:07;;;;;;;1.17;0.50;;;10.90;99.90;;;;;;4997880;28;20443;-47
2024/03/29 11:43:37;;;;;;;1.17;0.63;;;10.90;99.90;;;;;;5002970;28;20445;-47
2024/03/29 11:46:06;;;;;;;1.33;0.60;;;10.90;99.90;;;;;;4996871;28;20811;-46
2024/03/29 11:48:34;;;;;;;1.10;0.50;;;10.90;99.90;;;;;;5002920;28;20502;-47
2024/03/29 11:51:02;;;;;;;1.93;0.50;;;10.90;99.90;;;;;;4996612;28;20567;-51
2024/03/29 11:53:30;;;;;;;1.40;0.40;;;10.90;99.90;;;;;;5004223;28;20531;-47
2024/03/29 11:56:00;;;;;;;1.00;0.50;;;10.90;99.90;;;;;;4997019;28;20434;-48
2024/03/29 11:58:29;;;;;;;1.37;0.70;;;10.90;99.90;;;;;;5000550;28;20559;-46
2024/03/29 12:00:57;;;;;;;1.13;0.60;;;10.90;99.90;;;;;;5000355;28;20887;-47
2024/03/29 12:03:26;;;;;;;1.50;0.90;;;10.90;99.90;;;;;;4996222;28;20437;-47
2024/03/29 12:05:58;;;;;;;1.00;0.50;;;10.90;99.90;;;;;;4996959;28;20782;-47
2024/03/29 12:08:29;;;;;;;1.17;0.40;;;10.90;99.90;;;;;;5003081;28;20630;-49
2024/03/29 12:10:57;;;;;;;0.90;0.40;;;10.90;99.90;;;;;;4994349;28;20895;-46
2024/03/29 12:13:26;;;;;;;1.40;0.80;;;11.00;99.90;;;;;;4994227;28;20988;-47
2024/03/29 12:15:54;;;;;;;1.00;0.50;;;11.00;99.90;;;;;;4984878;28;20471;-48
2024/03/29 12:18:22;;;;;;;1.10;0.50;;;11.00;99.90;;;;;;4999925;28;20540;-47
2024/03/29 12:20:50;;;;;;;2.30;1.00;;;11.00;99.90;;;;;;4998924;28;20512;-47
2024/03/29 12:23:18;;;;;;;1.00;0.50;;;11.00;99.90;;;;;;5012303;28;20536;-47
2024/03/29 12:25:46;;;;;;;1.20;0.70;;;11.00;99.90;;;;;;4994502;28;20433;-46
2024/03/29 12:28:15;;;;;;;0.90;0.40;;;11.00;99.90;;;;;;4999268;28;20548;-47
2024/03/29 12:30:45;;;;;;;1.10;0.50;;;11.00;99.90;;;;;;4994009;28;20466;-50
2024/03/29 12:33:15;;;;;;;1.57;0.60;;;11.00;99.90;;;;;;5008073;28;20460;-47
2024/03/29 12:35:42;;;;;;;1.20;0.63;;;11.00;99.90;;;;;;5004461;28;20446;-46
2024/03/29 12:38:12;;;;;;;0.90;0.47;;;11.00;99.90;;;;;;5002618;28;20790;-47
2024/03/29 12:40:43;;;;;;;1.70;0.63;;;11.00;99.90;;;;;;4999087;28;20492;-47
2024/03/29 12:43:10;;;;;;;1.10;0.40;;;11.00;99.90;;;;;;4998273;28;20466;-46
2024/03/29 12:45:40;;;;;;;0.90;0.43;;;11.00;99.90;;;;;;5001536;28;20451;-47
2024/03/29 12:48:19;;;;;;;1.10;0.80;;;11.00;99.90;;;;;;4996929;28;20444;-47
2024/03/29 12:50:47;;;;;;;1.10;0.50;;;11.00;99.90;;;;;;4998980;28;20552;-47
2024/03/29 12:53:16;;;;;;;1.43;0.60;;;11.00;99.90;;;;;;4999407;28;20487;-48
2024/03/29 12:55:45;;;;;;;1.20;0.40;;;11.00;99.90;;;;;;4998286;28;20445;-47
2024/03/29 12:58:13;;;;;;;1.30;0.53;;;11.00;99.90;;;;;;5002063;28;20480;-48
2024/03/29 13:00:40;;;;;;;1.00;0.40;;;11.00;99.90;;;;;;4999626;28;20468;-46
2024/03/29 13:03:08;;;;;;;1.30;0.90;;;11.00;99.90;;;;;;4996363;28;20432;-48
2024/03/29 13:05:40;;;;;;;1.23;0.60;;;11.00;99.90;;;;;;4994915;28;20560;-47
2024/03/29 13:08:12;;;;;;;1.07;0.40;;;11.00;99.90;;;;;;4997611;28;20453;-47
2024/03/29 13:10:39;;;;;;;1.10;0.60;;;11.00;99.90;;;;;;4995640;28;20520;-47
2024/03/29 13:13:10;;;;;;;1.33;0.63;;;11.00;99.90;;;;;;5001174;28;20464;-48
2024/03/29 13:15:38;;;;;;;1.63;0.50;;;11.00;99.90;;;;;;4995818;28;20519;-46
2024/03/29 13:18:07;;;;;;;1.50;0.50;;;11.00;99.90;;;;;;5001472;28;20447;-47
2024/03/29 13:20:40;;;;;;;1.50;0.60;;;11.10;99.90;;;;;;4995254;28;20443;-47
2024/03/29 13:23:08;;;;;;;1.27;0.60;;;11.10;99.90;;;;;;4996211;28;20437;-46
2024/03/29 13:25:35;;;;;;;0.97;0.50;;;11.10;99.90;;;;;;4996935;28;20570;-46
2024/03/29 13:28:02;;;;;;;1.80;0.60;;;11.10;99.90;;;;;;4994930;28;20802;-46
2024/03/29 13:30:31;;;;;;;1.10;0.43;;;11.10;99.90;;;;;;5001915;28;20499;-47
2024/03/29 13:32:58;;;;;;;1.10;0.50;;;11.10;99.90;;;;;;4992562;28;20436;-47
2024/03/29 13:35:25;;;;;;;1.17;0.50;;;11.10;99.90;;;;;;4999551;28;20812;-46
2024/03/29 13:37:54;;;;;;;0.80;0.40;;;11.10;99.90;;;;;;4998320;28;20464;-46
2024/03/29 13:40:24;;;;;;;1.90;0.40;;;11.10;99.90;;;;;;5007652;28;20487;-46
2024/03/29 13:42:53;;;;;;;1.50;0.50;;;11.20;99.90;;;;;;5011483;28;20478;-46
2024/03/29 13:45:20;;;;;;;1.00;0.47;;;11.20;99.90;;;;;;4996665;28;20455;-46
2024/03/29 13:47:48;;;;;;;0.90;0.40;;;11.10;99.90;;;;;;4999128;28;20440;-46
2024/03/29 13:50:15;;;;;;;1.00;0.47;;;11.20;99.90;;;;;;4996213;28;20538;-45
2024/03/29 13:52:43;;;;;;;1.10;0.50;;;11.20;99.90;;;;;;4995153;28;20508;-46
2024/03/29 13:55:12;;;;;;;1.00;0.50;;;11.20;99.90;;;;;;4994156;28;21061;-46
2024/03/29 13:57:40;;;;;;;0.90;0.50;;;11.20;99.90;;;;;;4999017;28;20895;-46
2024/03/29 14:00:09;;;;;;;1.53;0.70;;;11.20;99.90;;;;;;4997166;28;20535;-46
2024/03/29 14:02:36;;;;;;;0.90;0.50;;;11.20;99.90;;;;;;4987763;28;20441;-47
2024/03/29 14:05:03;;;;;;;0.90;0.40;;;11.20;99.90;;;;;;4992418;28;20469;-47
2024/03/29 14:07:30;;;;;;;1.63;0.57;;;11.20;99.90;;;;;;4995544;28;20445;-46
2024/03/29 14:09:58;;;;;;;1.43;0.70;;;11.20;99.90;;;;;;5006621;28;21020;-46
2024/03/29 14:12:26;;;;;;;1.10;0.50;;;11.20;99.90;;;;;;4990483;28;20451;-46
2024/03/29 14:14:54;;;;;;;1.50;0.60;;;11.20;99.90;;;;;;4997382;28;20452;-46
2024/03/29 14:17:21;;;;;;;2.03;0.53;;;11.30;99.90;;;;;;4996981;28;20475;-47
2024/03/29 14:19:49;;;;;;;0.97;0.40;;;11.30;99.90;;;;;;4993059;28;20832;-47
2024/03/29 14:22:18;;;;;;;2.20;0.50;;;11.30;99.90;;;;;;4990453;28;20430;-46
2024/03/29 14:24:46;;;;;;;1.20;0.60;;;11.20;99.90;;;;;;4992928;28;20433;-46
2024/03/29 14:27:14;;;;;;;1.23;0.57;;;11.30;99.90;;;;;;4994920;28;20532;-46
2024/03/29 14:29:44;;;;;;;1.10;0.50;;;11.30;99.90;;;;;;4991389;28;20449;-47
2024/03/29 14:32:11;;;;;;;1.13;0.67;;;11.30;99.90;;;;;;4998618;28;20494;-46
2024/03/29 14:34:44;;;;;;;1.20;0.73;;;11.30;99.90;;;;;;4988644;28;20821;-46
2024/03/29 14:37:13;;;;;;;1.67;0.73;;;11.30;99.90;;;;;;4990885;28;20457;-46
2024/03/29 14:39:42;;;;;;;1.17;0.60;;;11.30;99.90;;;;;;4989763;28;20446;-46
2024/03/29 14:42:11;;;;;;;1.33;0.57;;;11.30;99.90;;;;;;4990519;28;20449;-46
2024/03/29 14:44:38;;;;;;;1.17;0.70;;;11.30;99.90;;;;;;5000055;28;20972;-46